Time;durP1;ratioP1;P1;durP2;ratioP2;P2;SDS_P1;SDS_P2;PMS_P1;PMS_P2;Temp;Humidity;BMP_temperature;BMP_pressure;BME280_temperature;BME280_humidity;BME280_pressure;Samples;Min_cycle;Max_cycle;Signal;HPM_P1;HPM_P2
2021/12/30 00:01:17;;;;;;;134.52;60.30;;;0.50;99.90;;;;;;5051617;28;20336;-77
2021/12/30 00:03:45;;;;;;;120.55;54.97;;;0.40;99.90;;;;;;5051823;28;20364;-77
2021/12/30 00:06:10;;;;;;;141.52;62.70;;;0.40;99.90;;;;;;5049447;28;20039;-77
2021/12/30 00:08:36;;;;;;;156.20;72.07;;;0.40;99.90;;;;;;5051694;28;20029;-77
2021/12/30 00:11:02;;;;;;;168.85;84.00;;;0.50;99.90;;;;;;5052150;28;20021;-78
2021/12/30 00:13:28;;;;;;;298.83;152.35;;;0.50;99.90;;;;;;5050356;28;20048;-77
2021/12/30 00:15:54;;;;;;;222.77;107.03;;;0.50;99.90;;;;;;5050167;28;20288;-77
2021/12/30 00:18:20;;;;;;;224.15;108.72;;;0.40;99.90;;;;;;5068849;28;20121;-77
2021/12/30 00:20:46;;;;;;;175.40;88.70;;;0.40;99.90;;;;;;5070011;28;20024;-77
2021/12/30 00:23:12;;;;;;;209.27;109.03;;;0.40;99.90;;;;;;5069785;28;20486;-77
2021/12/30 00:25:44;;;;;;;158.68;80.15;;;0.50;99.90;;;;;;5070000;28;20067;-77
2021/12/30 00:28:13;;;;;;;156.48;78.65;;;0.50;99.90;;;;;;5071448;28;20032;-77
2021/12/30 00:30:39;;;;;;;158.50;79.35;;;0.50;99.90;;;;;;5071086;28;20067;-77
2021/12/30 00:33:05;;;;;;;149.43;87.30;;;0.50;99.90;;;;;;5070103;28;20489;-77
2021/12/30 00:35:32;;;;;;;133.55;70.07;;;0.50;99.90;;;;;;5069832;28;20067;-77
2021/12/30 00:37:58;;;;;;;110.38;55.10;;;0.50;99.90;;;;;;5070140;28;20364;-77
2021/12/30 00:40:24;;;;;;;100.57;51.65;;;0.50;99.90;;;;;;5069745;28;20027;-77
2021/12/30 00:42:49;;;;;;;100.43;48.25;;;0.60;99.90;;;;;;5071236;28;20027;-77
2021/12/30 00:45:15;;;;;;;195.05;70.22;;;0.50;99.90;;;;;;5071001;28;20032;-77
2021/12/30 00:47:41;;;;;;;158.85;61.92;;;0.50;99.90;;;;;;5071298;28;20465;-77
2021/12/30 00:50:07;;;;;;;145.18;58.55;;;0.50;99.90;;;;;;5071137;28;20095;-77
2021/12/30 00:52:33;;;;;;;135.35;59.58;;;0.50;99.90;;;;;;5071007;28;20532;-77
2021/12/30 00:54:58;;;;;;;121.75;54.95;;;0.50;99.90;;;;;;5069745;28;20474;-77
2021/12/30 00:57:24;;;;;;;105.93;54.80;;;0.50;99.90;;;;;;5071070;28;20021;-77
2021/12/30 00:59:49;;;;;;;279.98;93.90;;;0.50;99.90;;;;;;5056829;28;20021;-78
2021/12/30 01:02:15;;;;;;;182.18;72.55;;;0.50;99.90;;;;;;5066867;28;20409;-78
2021/12/30 01:04:40;;;;;;;144.93;63.65;;;0.50;99.90;;;;;;5069396;28;20028;-78
2021/12/30 01:07:06;;;;;;;140.70;63.10;;;0.50;99.90;;;;;;5053521;28;20021;-78
2021/12/30 01:09:32;;;;;;;130.15;59.60;;;0.50;99.90;;;;;;5051130;28;20421;-78
2021/12/30 01:11:58;;;;;;;130.10;56.53;;;0.60;99.90;;;;;;5049808;28;20461;-78
2021/12/30 01:14:28;;;;;;;147.40;59.15;;;0.50;99.90;;;;;;5049623;28;20506;-78
2021/12/30 01:16:58;;;;;;;136.60;56.72;;;0.60;99.90;;;;;;5053187;28;20017;-78
2021/12/30 01:19:43;;;;;;;129.23;57.85;;;0.50;99.90;;;;;;5073683;28;20020;-77
2021/12/30 01:22:23;;;;;;;114.32;51.58;;;0.50;99.90;;;;;;5074903;28;20028;-77
2021/12/30 01:24:49;;;;;;;105.38;49.03;;;0.60;99.90;;;;;;5074992;28;20027;-77
2021/12/30 01:27:16;;;;;;;107.78;47.60;;;0.60;99.90;;;;;;5074916;28;20025;-77
2021/12/30 01:29:41;;;;;;;129.02;57.05;;;0.60;99.90;;;;;;5073214;28;20323;-77
2021/12/30 01:32:08;;;;;;;132.20;56.20;;;0.60;99.90;;;;;;5073276;28;20107;-78
2021/12/30 01:34:33;;;;;;;106.75;49.30;;;0.60;99.90;;;;;;5073228;28;20070;-77
2021/12/30 01:37:01;;;;;;;115.93;53.80;;;0.60;99.90;;;;;;5074665;28;20013;-77
2021/12/30 01:39:28;;;;;;;105.53;51.20;;;0.60;99.90;;;;;;5074608;28;20477;-77
2021/12/30 01:41:54;;;;;;;99.13;48.45;;;0.60;99.90;;;;;;5054545;28;20116;-77
2021/12/30 01:44:21;;;;;;;88.38;43.53;;;0.60;99.90;;;;;;5053987;28;20398;-77
2021/12/30 01:46:47;;;;;;;94.03;46.88;;;0.60;99.90;;;;;;5054950;28;20663;-78
2021/12/30 01:49:14;;;;;;;98.72;46.38;;;0.60;99.90;;;;;;5054498;28;20029;-78
2021/12/30 01:51:40;;;;;;;91.20;43.13;;;0.60;99.90;;;;;;5054214;28;20049;-78
2021/12/30 01:54:07;;;;;;;89.88;46.33;;;0.60;99.90;;;;;;5054582;28;20028;-78
2021/12/30 01:56:32;;;;;;;85.53;43.13;;;0.60;99.90;;;;;;5054085;28;20021;-78
2021/12/30 01:58:59;;;;;;;109.90;51.38;;;0.60;99.90;;;;;;5054345;28;20028;-78
2021/12/30 02:01:25;;;;;;;115.93;51.60;;;0.70;99.90;;;;;;5054173;28;20387;-78
2021/12/30 02:03:51;;;;;;;97.90;49.08;;;0.70;99.90;;;;;;5054084;28;20113;-77
2021/12/30 02:06:17;;;;;;;120.15;53.63;;;0.70;99.90;;;;;;5052754;28;20029;-77
2021/12/30 02:08:43;;;;;;;102.03;47.60;;;0.70;99.90;;;;;;5053892;28;20032;-77
2021/12/30 02:11:09;;;;;;;103.88;48.60;;;0.60;99.90;;;;;;5053870;28;20056;-77
2021/12/30 02:13:35;;;;;;;96.97;48.42;;;0.60;99.90;;;;;;5052607;28;20025;-78
2021/12/30 02:16:02;;;;;;;93.55;45.00;;;0.70;99.90;;;;;;5053858;28;20419;-78
2021/12/30 02:18:29;;;;;;;86.78;44.60;;;0.70;99.90;;;;;;5052232;28;20029;-77
2021/12/30 02:20:57;;;;;;;109.03;50.70;;;0.70;99.90;;;;;;5053799;28;20459;-77
2021/12/30 02:23:34;;;;;;;100.35;49.70;;;0.70;99.90;;;;;;5053786;28;20301;-78
2021/12/30 02:26:09;;;;;;;106.30;51.33;;;0.70;99.90;;;;;;5053685;28;20033;-77
2021/12/30 02:28:37;;;;;;;133.07;65.85;;;0.60;99.90;;;;;;5051886;28;20013;-77
2021/12/30 02:31:10;;;;;;;124.43;62.00;;;0.70;99.90;;;;;;5051894;28;20025;-77
2021/12/30 02:33:36;;;;;;;99.50;48.40;;;0.70;99.90;;;;;;5053725;28;20067;-77
2021/12/30 02:36:02;;;;;;;89.57;43.25;;;0.70;99.90;;;;;;5052454;28;20048;-77
2021/12/30 02:38:28;;;;;;;88.03;42.45;;;0.70;99.90;;;;;;5053448;28;20025;-77
2021/12/30 02:40:57;;;;;;;81.18;44.35;;;0.70;99.90;;;;;;5052333;28;20497;-77
2021/12/30 02:43:27;;;;;;;84.95;45.80;;;0.70;99.90;;;;;;5053490;28;20470;-77
2021/12/30 02:45:53;;;;;;;86.15;42.50;;;0.60;99.90;;;;;;5053304;28;20033;-77
2021/12/30 02:48:25;;;;;;;88.18;44.83;;;0.60;99.90;;;;;;5053384;28;20163;-77
2021/12/30 02:50:54;;;;;;;89.32;44.28;;;0.50;99.90;;;;;;5051850;28;20014;-77
2021/12/30 02:53:20;;;;;;;79.03;41.72;;;0.50;99.90;;;;;;5053262;28;20033;-78
2021/12/30 02:55:48;;;;;;;92.22;45.55;;;0.50;99.90;;;;;;5052005;28;20159;-77
2021/12/30 02:58:14;;;;;;;84.95;44.67;;;0.50;99.90;;;;;;5053120;28;20063;-77
2021/12/30 03:00:41;;;;;;;94.00;44.53;;;0.40;99.90;;;;;;5052926;28;20027;-78
2021/12/30 03:03:07;;;;;;;83.03;45.08;;;0.40;99.90;;;;;;5052994;28;20028;-78
2021/12/30 03:05:33;;;;;;;93.22;47.80;;;0.40;99.90;;;;;;5052812;28;20033;-78
2021/12/30 03:07:59;;;;;;;89.55;44.13;;;0.40;99.90;;;;;;5052973;28;20057;-77
2021/12/30 03:10:27;;;;;;;94.72;45.05;;;0.40;99.90;;;;;;5051803;28;20032;-77
2021/12/30 03:12:57;;;;;;;90.63;50.33;;;0.40;99.90;;;;;;5052885;28;20074;-77
2021/12/30 03:15:27;;;;;;;88.35;45.10;;;0.40;99.90;;;;;;5051698;28;20044;-77
2021/12/30 03:17:53;;;;;;;92.65;45.40;;;0.30;99.90;;;;;;5051666;28;20021;-78
2021/12/30 03:20:19;;;;;;;85.05;44.92;;;0.30;99.90;;;;;;5052673;28;20475;-77
2021/12/30 03:22:45;;;;;;;94.18;48.72;;;0.30;99.90;;;;;;5052641;28;20083;-77
2021/12/30 03:25:13;;;;;;;80.25;41.22;;;0.30;99.90;;;;;;5051161;28;20513;-78
2021/12/30 03:27:39;;;;;;;93.35;45.65;;;0.30;99.90;;;;;;5051381;28;20017;-78
2021/12/30 03:30:08;;;;;;;94.75;48.58;;;0.30;99.90;;;;;;5052504;28;20497;-77
2021/12/30 03:32:34;;;;;;;98.18;50.20;;;0.30;99.90;;;;;;5052436;28;20017;-77
2021/12/30 03:34:59;;;;;;;96.38;49.78;;;0.30;99.90;;;;;;5052189;28;20497;-77
2021/12/30 03:37:25;;;;;;;99.65;49.35;;;0.40;99.90;;;;;;5052848;28;20025;-77
2021/12/30 03:39:51;;;;;;;132.25;65.35;;;0.40;99.90;;;;;;5052066;28;20027;-77
2021/12/30 03:42:16;;;;;;;111.53;58.88;;;0.40;99.90;;;;;;5050886;28;20040;-77
2021/12/30 03:44:43;;;;;;;88.45;45.15;;;0.40;99.90;;;;;;5050729;28;20394;-77
2021/12/30 03:47:13;;;;;;;94.80;47.05;;;0.40;99.90;;;;;;5050750;28;20475;-77
2021/12/30 03:49:43;;;;;;;78.95;41.15;;;0.40;99.90;;;;;;5052093;28;20028;-77
2021/12/30 03:52:09;;;;;;;81.20;39.25;;;0.40;99.90;;;;;;5052142;28;20027;-77
2021/12/30 03:54:35;;;;;;;91.15;46.05;;;0.40;99.90;;;;;;5051955;28;20020;-77
2021/12/30 03:57:00;;;;;;;88.68;45.72;;;0.40;99.90;;;;;;5050701;28;20033;-77
2021/12/30 03:59:26;;;;;;;82.55;40.83;;;0.50;99.90;;;;;;5050506;28;20082;-77
2021/12/30 04:01:51;;;;;;;89.90;47.40;;;0.50;99.90;;;;;;5052116;28;20024;-77
2021/12/30 04:04:17;;;;;;;87.25;41.45;;;0.50;99.90;;;;;;5051819;28;20021;-77
2021/12/30 04:06:42;;;;;;;96.15;47.30;;;0.50;99.90;;;;;;5050659;28;20037;-77
2021/12/30 04:09:08;;;;;;;86.57;44.80;;;0.50;99.90;;;;;;5050572;28;20029;-77
2021/12/30 04:11:35;;;;;;;99.28;49.80;;;0.50;99.90;;;;;;5050625;28;20083;-77
2021/12/30 04:14:03;;;;;;;114.10;53.22;;;0.50;99.90;;;;;;5051752;28;20013;-77
2021/12/30 04:16:29;;;;;;;137.32;61.80;;;0.50;99.90;;;;;;5051570;28;20033;-77
2021/12/30 04:18:55;;;;;;;93.38;47.70;;;0.50;99.90;;;;;;5051596;28;20029;-77
2021/12/30 04:21:21;;;;;;;82.70;43.85;;;0.50;99.90;;;;;;5051689;28;20022;-78
2021/12/30 04:23:47;;;;;;;76.78;39.67;;;0.50;99.90;;;;;;5050408;28;20417;-77
2021/12/30 04:26:12;;;;;;;76.20;39.92;;;0.40;99.90;;;;;;5050099;28;20085;-77
2021/12/30 04:28:39;;;;;;;78.50;41.38;;;0.50;99.90;;;;;;5051526;28;20021;-78
2021/12/30 04:31:05;;;;;;;80.90;41.90;;;0.50;99.90;;;;;;5056394;28;20013;-78
2021/12/30 04:33:31;;;;;;;83.97;40.65;;;0.50;99.90;;;;;;5070451;28;20477;-77
2021/12/30 04:35:57;;;;;;;86.35;42.78;;;0.50;99.90;;;;;;5071290;28;20023;-77
2021/12/30 04:38:28;;;;;;;91.10;44.58;;;0.60;99.90;;;;;;5069914;28;20029;-77
2021/12/30 04:40:54;;;;;;;106.82;53.08;;;0.50;99.90;;;;;;5070093;28;20314;-77
2021/12/30 04:43:21;;;;;;;111.15;54.15;;;0.50;99.90;;;;;;5069611;28;20580;-77
2021/12/30 04:45:47;;;;;;;110.47;49.88;;;0.50;99.90;;;;;;5071094;28;20397;-77
2021/12/30 04:48:14;;;;;;;109.10;53.22;;;0.60;99.90;;;;;;5070424;28;20039;-77
2021/12/30 04:50:40;;;;;;;112.05;52.83;;;0.60;99.90;;;;;;5071021;28;20025;-77
2021/12/30 04:53:06;;;;;;;132.25;60.10;;;0.60;99.90;;;;;;5069612;28;20386;-77
2021/12/30 04:55:31;;;;;;;101.18;49.17;;;0.70;99.90;;;;;;5056260;28;20021;-77
2021/12/30 04:57:57;;;;;;;117.50;58.63;;;0.70;99.90;;;;;;5056665;28;20505;-77
2021/12/30 05:00:23;;;;;;;112.93;53.47;;;0.70;99.90;;;;;;5069843;28;20032;-77
2021/12/30 05:05:20;;;;;;;105.38;49.03;;;0.70;99.90;;;;;;5051030;28;20493;-77
2021/12/30 05:07:46;;;;;;;112.10;54.72;;;0.70;99.90;;;;;;5049665;28;20115;-77
2021/12/30 05:10:11;;;;;;;110.45;54.45;;;0.70;99.90;;;;;;5050925;28;20026;-77
2021/12/30 05:12:37;;;;;;;102.38;53.08;;;0.70;99.90;;;;;;5051885;28;20044;-77
2021/12/30 05:15:03;;;;;;;103.78;53.15;;;0.70;99.90;;;;;;5070792;28;20031;-77
2021/12/30 05:17:30;;;;;;;96.45;49.85;;;0.70;99.90;;;;;;5070725;28;20394;-77
2021/12/30 05:19:56;;;;;;;93.78;48.15;;;0.80;99.90;;;;;;5069515;28;20017;-77
2021/12/30 05:22:21;;;;;;;102.80;49.60;;;0.80;99.90;;;;;;5070934;28;20062;-77
2021/12/30 05:24:47;;;;;;;93.90;42.45;;;0.80;99.90;;;;;;5070835;28;20508;-77
2021/12/30 05:27:12;;;;;;;92.97;45.35;;;0.80;99.90;;;;;;5070917;28;20398;-77
2021/12/30 05:29:38;;;;;;;91.57;43.78;;;0.80;99.90;;;;;;5070891;28;20025;-77
2021/12/30 05:32:04;;;;;;;84.40;44.83;;;0.90;99.90;;;;;;5069758;28;20051;-77
2021/12/30 05:34:29;;;;;;;85.47;44.53;;;0.90;99.90;;;;;;5070761;28;20021;-77
2021/12/30 05:36:55;;;;;;;86.25;44.00;;;0.90;99.90;;;;;;5054744;28;20029;-77
2021/12/30 05:39:20;;;;;;;96.13;45.60;;;0.90;99.90;;;;;;5050725;28;20044;-77
2021/12/30 05:41:46;;;;;;;124.90;62.50;;;0.90;99.90;;;;;;5049031;28;20075;-78
2021/12/30 05:44:12;;;;;;;116.13;58.33;;;0.90;99.90;;;;;;5050882;28;20037;-77
2021/12/30 05:46:37;;;;;;;118.65;58.90;;;0.90;99.90;;;;;;5049008;28;20033;-77
2021/12/30 05:49:03;;;;;;;111.82;58.60;;;0.90;99.90;;;;;;5062618;28;20048;-77
2021/12/30 05:51:29;;;;;;;107.22;55.58;;;0.90;99.90;;;;;;5049464;28;20175;-77
2021/12/30 05:53:54;;;;;;;126.63;60.05;;;0.90;99.90;;;;;;5050430;28;20513;-77
2021/12/30 05:56:20;;;;;;;118.88;59.13;;;0.90;99.90;;;;;;5047387;28;20067;-78
2021/12/30 05:58:46;;;;;;;124.95;58.13;;;0.90;99.90;;;;;;5046757;28;20232;-77
2021/12/30 06:01:11;;;;;;;130.35;64.57;;;0.80;99.90;;;;;;5048347;28;20522;-77
2021/12/30 06:03:37;;;;;;;141.00;67.28;;;0.80;99.90;;;;;;5055910;28;20090;-77
2021/12/30 06:06:03;;;;;;;120.35;61.75;;;0.80;99.90;;;;;;5071808;28;20474;-77
2021/12/30 06:08:28;;;;;;;164.07;75.63;;;0.80;99.90;;;;;;5072473;28;20082;-78
2021/12/30 06:10:54;;;;;;;140.70;65.95;;;0.80;99.90;;;;;;5071845;28;20025;-77
2021/12/30 06:13:20;;;;;;;127.55;63.15;;;0.80;99.90;;;;;;5073710;28;20040;-77
2021/12/30 06:15:45;;;;;;;124.43;62.95;;;0.80;99.90;;;;;;5072411;28;20116;-77
2021/12/30 06:18:11;;;;;;;122.53;60.33;;;0.80;99.90;;;;;;5073410;28;20021;-77
2021/12/30 06:20:36;;;;;;;129.77;67.10;;;0.80;99.90;;;;;;5072454;28;20028;-77
2021/12/30 06:23:02;;;;;;;137.90;68.72;;;0.80;99.90;;;;;;5072512;28;20024;-77
2021/12/30 06:25:28;;;;;;;132.68;64.85;;;0.80;99.90;;;;;;5072414;28;20028;-77
2021/12/30 06:27:53;;;;;;;200.50;85.30;;;0.80;99.90;;;;;;5073838;28;20479;-77
2021/12/30 06:30:19;;;;;;;227.85;100.82;;;0.80;99.90;;;;;;5072359;28;20492;-77
2021/12/30 06:32:45;;;;;;;172.20;82.63;;;0.80;99.90;;;;;;5073439;28;20067;-78
2021/12/30 06:35:11;;;;;;;215.00;98.93;;;0.80;99.90;;;;;;5073352;28;20056;-77
2021/12/30 06:37:37;;;;;;;197.73;90.95;;;0.80;99.90;;;;;;5073811;28;20025;-77
2021/12/30 06:40:05;;;;;;;161.18;78.32;;;0.80;99.90;;;;;;5073684;28;20095;-77
2021/12/30 06:42:30;;;;;;;152.00;73.05;;;0.80;99.90;;;;;;5064742;28;20029;-77
2021/12/30 06:44:56;;;;;;;252.63;111.85;;;0.80;99.90;;;;;;5071758;28;20029;-77
2021/12/30 06:47:23;;;;;;;237.20;105.20;;;0.90;99.90;;;;;;5073441;28;20024;-78
2021/12/30 06:49:49;;;;;;;232.32;101.43;;;0.90;99.90;;;;;;5072328;28;20493;-78
2021/12/30 06:52:15;;;;;;;270.45;109.38;;;0.90;99.90;;;;;;5072102;28;20016;-77
2021/12/30 06:54:40;;;;;;;260.27;120.68;;;0.90;99.90;;;;;;5071903;28;20051;-78
2021/12/30 06:57:06;;;;;;;283.95;135.27;;;0.90;99.90;;;;;;5073281;28;20047;-77
2021/12/30 06:59:33;;;;;;;251.77;116.18;;;1.00;99.90;;;;;;5073127;28;20051;-78
2021/12/30 07:01:58;;;;;;;282.67;120.93;;;1.00;99.90;;;;;;5073179;28;20090;-77
2021/12/30 07:04:25;;;;;;;269.48;121.57;;;1.00;99.90;;;;;;5071768;28;20021;-77
2021/12/30 07:06:52;;;;;;;230.68;103.68;;;1.00;99.90;;;;;;5071715;28;20032;-77
2021/12/30 07:09:18;;;;;;;323.35;152.40;;;1.00;99.90;;;;;;5071670;28;20028;-78
2021/12/30 07:11:43;;;;;;;280.73;132.02;;;1.00;99.90;;;;;;5071626;28;20390;-77
2021/12/30 07:14:09;;;;;;;262.10;128.70;;;1.00;99.90;;;;;;5072746;28;20028;-77
2021/12/30 07:16:35;;;;;;;240.27;117.78;;;1.00;99.90;;;;;;5071287;28;20385;-77
2021/12/30 07:19:00;;;;;;;243.35;116.50;;;1.00;99.90;;;;;;5071581;28;20016;-77
2021/12/30 07:21:26;;;;;;;198.57;99.85;;;1.00;99.90;;;;;;5071450;28;20462;-78
2021/12/30 07:23:51;;;;;;;254.52;121.88;;;1.00;99.90;;;;;;5071582;28;20146;-77
2021/12/30 07:26:17;;;;;;;217.07;102.78;;;1.00;99.90;;;;;;5068491;28;20132;-77
2021/12/30 07:28:42;;;;;;;156.95;76.80;;;1.00;99.90;;;;;;5071992;28;20032;-77
2021/12/30 07:31:08;;;;;;;172.15;85.25;;;1.00;99.90;;;;;;5071393;28;20028;-77
2021/12/30 07:33:34;;;;;;;152.75;76.82;;;1.00;99.90;;;;;;5069683;28;20555;-77
2021/12/30 07:35:59;;;;;;;146.88;71.03;;;1.10;99.90;;;;;;5071326;28;20398;-77
2021/12/30 07:38:25;;;;;;;142.57;64.97;;;1.10;99.90;;;;;;5071612;28;20025;-77
2021/12/30 07:40:51;;;;;;;119.82;56.42;;;1.10;99.90;;;;;;5071633;28;20029;-77
2021/12/30 07:43:16;;;;;;;99.13;48.20;;;1.10;99.90;;;;;;5070208;28;20546;-77
2021/12/30 07:45:42;;;;;;;95.43;46.88;;;1.10;99.90;;;;;;5071313;28;20471;-77
2021/12/30 07:48:07;;;;;;;106.07;50.00;;;1.00;99.90;;;;;;5070014;28;20016;-77
2021/12/30 07:50:33;;;;;;;97.10;47.10;;;1.10;99.90;;;;;;5071550;28;20024;-77
2021/12/30 07:52:59;;;;;;;100.75;49.65;;;1.10;99.90;;;;;;5071002;28;20020;-78
2021/12/30 07:55:25;;;;;;;99.88;50.65;;;1.10;99.90;;;;;;5069211;28;20032;-77
2021/12/30 07:57:55;;;;;;;101.90;53.30;;;1.20;99.90;;;;;;5063880;28;20025;-78
2021/12/30 08:00:21;;;;;;;102.75;51.67;;;1.20;99.90;;;;;;5070134;28;20042;-78
2021/12/30 08:02:47;;;;;;;102.07;50.47;;;1.30;99.90;;;;;;5068362;28;20063;-77
2021/12/30 08:05:15;;;;;;;108.78;54.42;;;1.30;99.90;;;;;;5070886;28;20060;-76
2021/12/30 08:07:42;;;;;;;108.03;54.65;;;1.30;99.90;;;;;;5068110;28;20038;-76
2021/12/30 08:10:13;;;;;;;118.97;55.17;;;1.30;99.90;;;;;;5056230;28;20086;-76
2021/12/30 08:12:43;;;;;;;108.88;55.78;;;1.40;99.90;;;;;;5069290;28;20028;-76
2021/12/30 08:15:09;;;;;;;104.45;53.28;;;1.40;99.90;;;;;;5063409;28;20440;-76
2021/12/30 08:17:36;;;;;;;109.78;56.17;;;1.50;99.90;;;;;;5064795;28;20086;-77
2021/12/30 08:20:05;;;;;;;109.93;53.25;;;1.50;99.90;;;;;;5052379;28;20485;-76
2021/12/30 08:22:31;;;;;;;110.68;54.13;;;1.50;99.90;;;;;;5066380;28;20089;-77
2021/12/30 08:24:56;;;;;;;106.13;52.78;;;1.50;99.90;;;;;;5060614;28;20425;-76
2021/12/30 08:27:22;;;;;;;111.35;58.67;;;1.50;99.90;;;;;;5058705;28;20037;-75
2021/12/30 08:29:48;;;;;;;112.18;57.00;;;1.50;99.90;;;;;;5060924;28;20095;-77
2021/12/30 08:32:16;;;;;;;99.93;51.95;;;1.50;99.90;;;;;;5075238;28;20033;-77
2021/12/30 08:34:43;;;;;;;108.75;57.25;;;1.50;99.90;;;;;;5058303;28;20139;-75
2021/12/30 08:37:08;;;;;;;110.22;55.55;;;1.60;99.90;;;;;;5061391;28;20070;-75
2021/12/30 08:39:36;;;;;;;109.72;52.95;;;1.70;99.90;;;;;;5059626;28;20102;-77
2021/12/30 08:42:03;;;;;;;102.47;50.70;;;1.70;99.90;;;;;;5060918;28;20029;-74
2021/12/30 08:44:29;;;;;;;96.20;52.55;;;1.80;99.90;;;;;;5057082;28;20025;-75
2021/12/30 08:46:56;;;;;;;104.63;50.85;;;1.90;99.90;;;;;;5053529;28;20140;-75
2021/12/30 08:49:22;;;;;;;101.40;52.38;;;2.00;99.90;;;;;;5049894;28;20091;-74
2021/12/30 08:51:48;;;;;;;108.20;54.03;;;2.10;99.90;;;;;;5050353;28;20041;-75
2021/12/30 08:54:13;;;;;;;107.38;56.92;;;2.10;99.90;;;;;;5049156;28;20031;-75
2021/12/30 08:56:39;;;;;;;99.15;50.42;;;2.20;99.90;;;;;;5048832;28;20390;-74
2021/12/30 08:59:05;;;;;;;93.30;49.95;;;2.20;99.90;;;;;;5050036;28;20356;-75
2021/12/30 09:01:30;;;;;;;88.63;45.30;;;2.20;99.90;;;;;;5064152;28;20158;-74
2021/12/30 09:03:56;;;;;;;89.00;44.58;;;2.20;99.90;;;;;;5069559;28;20445;-75
2021/12/30 09:06:22;;;;;;;89.95;44.92;;;2.30;99.90;;;;;;5063620;28;20044;-75
2021/12/30 09:08:48;;;;;;;90.20;46.05;;;2.30;99.90;;;;;;5070377;28;20048;-74
2021/12/30 09:11:13;;;;;;;87.85;43.35;;;2.30;99.90;;;;;;5068841;28;20125;-75
2021/12/30 09:13:40;;;;;;;90.00;45.35;;;2.40;99.90;;;;;;5068826;28;20016;-75
2021/12/30 09:16:07;;;;;;;80.18;44.33;;;2.40;99.90;;;;;;5069360;28;20065;-75
2021/12/30 09:18:33;;;;;;;83.80;42.00;;;2.40;99.90;;;;;;5070192;28;20044;-75
2021/12/30 09:20:58;;;;;;;84.65;42.10;;;2.40;99.90;;;;;;5070477;28;20430;-74
2021/12/30 09:23:24;;;;;;;81.32;39.72;;;2.40;99.90;;;;;;5070164;28;20029;-74
2021/12/30 09:25:50;;;;;;;72.40;38.42;;;2.40;99.90;;;;;;5068202;28;20071;-74
2021/12/30 09:28:16;;;;;;;79.05;39.67;;;2.40;99.90;;;;;;5070517;28;20036;-75
2021/12/30 09:30:45;;;;;;;72.65;38.58;;;2.50;99.90;;;;;;5069348;28;20405;-74
2021/12/30 09:33:15;;;;;;;69.32;38.22;;;2.50;99.90;;;;;;5067902;28;20097;-75
2021/12/30 09:35:41;;;;;;;71.75;37.60;;;2.50;99.90;;;;;;5069588;28;20013;-74
2021/12/30 09:38:06;;;;;;;75.95;37.63;;;2.50;99.90;;;;;;5069396;28;20386;-75
2021/12/30 09:40:32;;;;;;;75.75;36.80;;;2.50;99.90;;;;;;5071399;28;20036;-74
2021/12/30 09:43:01;;;;;;;71.95;36.42;;;2.50;99.90;;;;;;5074168;28;20032;-74
2021/12/30 09:45:29;;;;;;;73.03;36.85;;;2.50;99.90;;;;;;5072771;28;20494;-74
2021/12/30 09:47:57;;;;;;;67.30;36.83;;;2.60;99.90;;;;;;5072530;28;20056;-75
2021/12/30 09:50:27;;;;;;;75.68;39.00;;;2.50;99.90;;;;;;5073642;28;20052;-75
2021/12/30 09:52:54;;;;;;;75.68;37.63;;;2.50;99.90;;;;;;5072431;28;20024;-75
2021/12/30 09:55:20;;;;;;;89.25;42.90;;;2.50;99.90;;;;;;5073479;28;20103;-74
2021/12/30 09:57:45;;;;;;;78.82;39.78;;;2.50;99.90;;;;;;5072289;28;20494;-74
2021/12/30 10:00:13;;;;;;;88.18;39.38;;;2.50;99.90;;;;;;5073068;28;20465;-75
2021/12/30 10:02:44;;;;;;;73.78;34.83;;;2.50;99.90;;;;;;5072101;28;20098;-74
2021/12/30 10:05:16;;;;;;;67.53;36.90;;;2.60;99.90;;;;;;5072582;28;20082;-74
2021/12/30 10:07:42;;;;;;;80.88;36.92;;;2.60;99.90;;;;;;5071374;28;20086;-75
2021/12/30 10:10:28;;;;;;;87.50;40.92;;;2.60;99.90;;;;;;5072004;28;20049;-75
2021/12/30 10:12:54;;;;;;;78.47;37.38;;;2.60;99.90;;;;;;5073014;28;20036;-74
2021/12/30 10:15:24;;;;;;;79.15;36.20;;;2.60;99.90;;;;;;5072102;28;20428;-74
2021/12/30 10:17:56;;;;;;;85.63;35.97;;;2.60;99.90;;;;;;5071363;28;20124;-74
2021/12/30 10:20:25;;;;;;;85.50;35.70;;;2.70;99.90;;;;;;5072638;28;20023;-74
2021/12/30 10:22:53;;;;;;;74.75;36.42;;;2.70;99.90;;;;;;5071301;28;20285;-74
2021/12/30 10:25:41;;;;;;;78.38;35.65;;;2.70;99.90;;;;;;5070841;28;20074;-74
2021/12/30 10:28:36;;;;;;;87.78;38.78;;;2.70;99.90;;;;;;5070916;28;20093;-75
2021/12/30 10:31:13;;;;;;;75.57;36.83;;;2.70;99.90;;;;;;5071125;28;20448;-74
2021/12/30 10:33:48;;;;;;;72.93;35.45;;;2.70;99.90;;;;;;5072278;28;20129;-74
2021/12/30 10:36:16;;;;;;;82.03;36.10;;;2.70;99.90;;;;;;5070770;28;20224;-74
2021/12/30 10:38:41;;;;;;;76.32;35.08;;;2.70;99.90;;;;;;5071979;28;20032;-75
2021/12/30 10:41:07;;;;;;;82.95;35.97;;;2.70;99.90;;;;;;5072281;28;20028;-74
2021/12/30 10:43:44;;;;;;;74.25;32.75;;;2.70;99.90;;;;;;5073460;28;20023;-74
2021/12/30 10:46:19;;;;;;;85.80;37.35;;;2.70;99.90;;;;;;5072138;28;20040;-74
2021/12/30 10:48:52;;;;;;;67.97;31.00;;;2.70;99.90;;;;;;5062084;28;20036;-74
2021/12/30 10:51:33;;;;;;;84.07;38.75;;;2.70;99.90;;;;;;5051070;28;20036;-75
2021/12/30 10:54:13;;;;;;;74.93;32.90;;;2.80;99.90;;;;;;5061006;28;20382;-75
2021/12/30 10:56:46;;;;;;;82.18;34.28;;;2.70;99.90;;;;;;5055898;28;20032;-74
2021/12/30 10:59:38;;;;;;;82.57;38.17;;;2.80;99.90;;;;;;5052896;28;20033;-74
2021/12/30 11:02:15;;;;;;;75.85;33.10;;;2.80;99.90;;;;;;5051555;28;20039;-74
2021/12/30 11:05:06;;;;;;;80.32;32.92;;;2.90;99.90;;;;;;5058505;28;20017;-74
2021/12/30 11:07:48;;;;;;;76.72;33.67;;;2.90;99.90;;;;;;5070104;28;20051;-74
2021/12/30 11:10:16;;;;;;;67.93;33.92;;;2.90;99.90;;;;;;5071902;28;20021;-73
2021/12/30 11:12:46;;;;;;;84.10;35.33;;;3.00;99.90;;;;;;5072169;28;20389;-74
2021/12/30 11:15:19;;;;;;;75.70;34.17;;;3.00;99.90;;;;;;5072394;28;20035;-74
2021/12/30 11:17:45;;;;;;;68.00;31.20;;;3.00;99.90;;;;;;5072166;28;20047;-75
2021/12/30 11:20:12;;;;;;;78.88;34.63;;;3.00;99.90;;;;;;5072668;28;20022;-74
2021/12/30 11:22:39;;;;;;;73.88;33.03;;;3.00;99.90;;;;;;5071936;28;20036;-74
2021/12/30 11:25:11;;;;;;;63.97;31.23;;;3.00;99.90;;;;;;5069014;28;20017;-74
2021/12/30 11:27:37;;;;;;;74.95;34.15;;;3.00;99.90;;;;;;5070266;28;20024;-74
2021/12/30 11:30:15;;;;;;;77.72;31.15;;;3.00;99.90;;;;;;5071972;28;20021;-73
2021/12/30 11:32:43;;;;;;;75.68;34.00;;;3.00;99.90;;;;;;5070413;28;21656;-74
2021/12/30 11:35:09;;;;;;;76.75;33.53;;;3.10;99.90;;;;;;5069317;28;20013;-74
2021/12/30 11:37:35;;;;;;;85.78;34.08;;;3.10;99.90;;;;;;5071235;28;20082;-74
2021/12/30 11:40:09;;;;;;;73.55;33.65;;;3.10;99.90;;;;;;5070284;28;20048;-74
2021/12/30 11:42:48;;;;;;;69.10;31.35;;;3.00;99.90;;;;;;5069957;28;20059;-74
2021/12/30 11:45:31;;;;;;;90.70;34.67;;;3.00;99.90;;;;;;5071684;28;20024;-74
2021/12/30 11:48:02;;;;;;;73.28;33.13;;;3.00;99.90;;;;;;5070276;28;20029;-74
2021/12/30 11:50:29;;;;;;;77.00;31.13;;;3.10;99.90;;;;;;5069888;28;20385;-75
2021/12/30 11:53:12;;;;;;;66.78;28.33;;;3.00;99.90;;;;;;5070918;28;20040;-73
2021/12/30 11:55:47;;;;;;;61.00;29.10;;;3.00;99.90;;;;;;5062955;28;20039;-74
2021/12/30 11:58:27;;;;;;;89.20;36.55;;;3.10;99.90;;;;;;5051379;28;20029;-75
2021/12/30 12:01:20;;;;;;;102.18;37.72;;;3.00;99.90;;;;;;5051562;28;20332;-74
2021/12/30 12:04:02;;;;;;;88.40;32.17;;;3.10;99.90;;;;;;5064511;28;20055;-73
2021/12/30 12:06:34;;;;;;;92.43;33.72;;;3.00;99.90;;;;;;5070919;28;20036;-74
2021/12/30 12:09:22;;;;;;;84.60;37.53;;;3.00;99.90;;;;;;5069432;28;20044;-73
2021/12/30 12:11:55;;;;;;;109.30;41.42;;;3.10;99.90;;;;;;5069563;28;20545;-73
2021/12/30 12:14:26;;;;;;;88.78;36.25;;;3.00;99.90;;;;;;5069818;28;20024;-74
2021/12/30 12:16:59;;;;;;;79.13;37.17;;;3.00;99.90;;;;;;5071159;28;20115;-75
2021/12/30 12:19:41;;;;;;;120.43;48.13;;;3.10;99.90;;;;;;5070994;28;20481;-74
2021/12/30 12:22:10;;;;;;;144.27;57.95;;;3.10;99.90;;;;;;5071017;28;20066;-74
2021/12/30 12:24:39;;;;;;;285.05;69.35;;;3.10;99.90;;;;;;5070206;28;20043;-74
2021/12/30 12:27:30;;;;;;;202.13;62.15;;;3.10;99.90;;;;;;5068242;28;20086;-74
2021/12/30 12:29:57;;;;;;;227.43;80.57;;;3.10;99.90;;;;;;5066813;28;20029;-74
2021/12/30 12:32:32;;;;;;;186.85;56.03;;;3.10;99.90;;;;;;5070432;28;20016;-74
2021/12/30 12:35:00;;;;;;;246.88;73.22;;;3.10;99.90;;;;;;5069506;28;20060;-74
2021/12/30 12:37:37;;;;;;;179.60;63.95;;;3.20;99.90;;;;;;5070239;28;20420;-74